Corona Emblem — 3FHF8 — position and weather

sailwx.info

Track history (hours):
 
Tides and Currents Weather Stations Pressure Air Temp Water Temp Dewpoint Dewpoint Depression Visibility Wind Speed Wind Dir Waves Ship Positions

Corona Emblem

Last reported at 2015-Jan-24 12:26 UTC. Time now 2015-Feb-01 18:13 UTC.
Position N 34°42' E 139°43'.
Warning: this ship's position is 8 days out of date.

Length 230 m; beam 36 m.

Type: Cargo ship. MMSI: 354224000.

Date/timePositionNaut miles runAvg speedWind from/ knotsBaromVisibWave heightAir tempDewpointWater temp
2015-Jan-24 12:26N 34°42' E 139°43'1112.8
2015-Jan-24 11:33N 34°52' E 139°39'1212.3
2015-Jan-24 10:33N 35°04' E 139°42'1211.9
2015-Jan-24 09:33N 35°16' E 139°46'1010.1
2015-Jan-24 08:33N 35°26' E 139°46'1210.8
2015-Jan-24 07:28N 35°32' E 139°58'0 0.3
2015-Jan-24 06:29N 35°31' E 139°58'0 0.0
2015-Jan-24 05:14N 35°31' E 139°58'0 0.1
2015-Jan-24 04:20N 35°31' E 139°58'0 0.0
2015-Jan-24 03:32N 35°31' E 139°58'0 0.1
2015-Jan-24 02:09N 35°31' E 139°58'2 3.4
2015-Jan-24 01:29N 35°31' E 139°55'1010.6
2015-Jan-24 00:33N 35°24' E 139°46'1110.8
2015-Jan-23 23:33N 35°13' E 139°47'9 8.7
2015-Jan-23 22:33N 35°05' E 139°45'8 7.9
2015-Jan-23 21:32N 34°57' E 139°41'1111.0
2015-Jan-23 20:31N 34°50' E 139°52'1212.2
2015-Jan-23 19:33N 34°51' E 140°06'  
Track history (hours):
 
Tides and Currents Weather Stations Pressure Air Temp Water Temp Dewpoint Dewpoint Depression Visibility Wind Speed Wind Dir Waves Ship Positions

Corona Emblem

Last reported at 2015-Jan-24 12:26 UTC. Time now 2015-Feb-01 18:13 UTC.
Position N 34°42' E 139°43'.
Warning: this ship's position is 8 days out of date.

Length 230 m; beam 36 m.

Type: Cargo ship. MMSI: 354224000.

Date/timePositionNaut miles runAvg speedWind from/ knotsBaromVisibWave heightAir tempDewpointWater temp
2015-Jan-24 12:26N 34°42' E 139°43'1112.8
2015-Jan-24 11:33N 34°52' E 139°39'1212.3
2015-Jan-24 10:33N 35°04' E 139°42'1211.9
2015-Jan-24 09:33N 35°16' E 139°46'1010.1
2015-Jan-24 08:33N 35°26' E 139°46'1210.8
2015-Jan-24 07:28N 35°32' E 139°58'0 0.3
2015-Jan-24 06:29N 35°31' E 139°58'0 0.0
2015-Jan-24 05:14N 35°31' E 139°58'0 0.1
2015-Jan-24 04:20N 35°31' E 139°58'0 0.0
2015-Jan-24 03:32N 35°31' E 139°58'0 0.1
2015-Jan-24 02:09N 35°31' E 139°58'2 3.4
2015-Jan-24 01:29N 35°31' E 139°55'1010.6
2015-Jan-24 00:33N 35°24' E 139°46'1110.8
2015-Jan-23 23:33N 35°13' E 139°47'9 8.7
2015-Jan-23 22:33N 35°05' E 139°45'8 7.9
2015-Jan-23 21:32N 34°57' E 139°41'1111.0
2015-Jan-23 20:31N 34°50' E 139°52'1212.2
2015-Jan-23 19:33N 34°51' E 140°06'  

Dump ship's entire track history